首页
METAR-TAF:

METAR-TAF

机场 :

Tallahassee Regional Airport

塔拉哈西, 佛罗里达州, 美国

纬度: 30-23-35N, 经度: 084-21-12W, 海拔: 24米

当前天气观测

该预报发布于36分钟前的13:53 UTC
静风
温度 6°C
湿度 81%
气压 1022 hPa
能見度: 16.1公里
散云层高于18000英尺
多云层高于25000英尺

METAR: KTLH 261353Z 00000KT 10SM SCT180 BKN250 06/03 A3017 RMK AO2 SLP218 T00560028

时间: 09:29 (14:29 UTC)

预报

该预报发布于2小时和54分钟前的11:35 UTC
预报有效从26日的 12点(UTC)到 27日的 12点(UTC)
风速3节,风向多变
能見度: 10公里
少量云层高于25000英尺
从 27日的 0300点(UTC)
风速节,风向
能見度: 10公里
阴天层高于6000英尺
从 27日的 0900点(UTC)
风速节,风向
能見度: 10公里
阴天层高于3500英尺
几率 30%
从 27日的 10点(UTC)到 27日的 12点(UTC)
能見度: 6.4公里
阴天层高于2500英尺
小雨

TAF: KTLH 261135Z 2612/2712 VRB03KT P6SM FEW250 FM270300 00000KT P6SM OVC060 FM270900 00000KT P6SM OVC035 PROB30 2710/2712 4SM -RA OVC025

超过4000个机场的气象观测和天气预报(METAR&TAF报告)。

可查询的气象台以黄色和红色小点在地图上表示。

将鼠标移到小点上方,可查看气象台名称。

然后点击查看天气观测和预报。

如需切换地图:点击带黑十字的绿色按钮放大地图;点击带横线的绿色按钮缩小地图;或者点击绿色箭头查看邻近地区的地图。


METAR-TAF: